Alsey, Illinois
Current Conditions -  °F | °C
As of 1:55 PM on Thursday 18 Dec 2014 (Local Time) from KIJX Reporting Station
Moderate Rain Moderate Rain  
Wind Chill: 31°   Ceiling: 1300
Heat Index: 31°   Visibility: 5mi
Dew Point: 26°   Wind: 0mph
Humidity: 82%   Direction: NA
Pressure: 30.24"   Gusts: NA
Location:  39.56°N, 90.43°W
Report Text: KIJX 181955Z AUTO 00000KT 5SM RA OVC013 M01/M03 A3024 RMK AO2 T10071035
Loading
Personal Weather Stations






























Interactive Weather Map New forecast layout! Learn more

10-Day Weather Forecast

Advertisements
Track Severe Weather on mobile